Time;durP1;ratioP1;P1;durP2;ratioP2;P2;SDS_P1;SDS_P2;PMS_P1;PMS_P2;Temp;Humidity;BMP_temperature;BMP_pressure;BME280_temperature;BME280_humidity;BME280_pressure;Samples;Min_cycle;Max_cycle;Signal;HPM_P1;HPM_P2
2022/12/15 00:40:13;;;;;;;13.80;5.97;;;;;;;-0.55;100.00;92452.84;5008234;28;20061;-67
2022/12/15 00:42:40;;;;;;;11.88;5.75;;;;;;;-0.49;100.00;92452.09;4996777;28;20103;-67
2022/12/15 00:45:07;;;;;;;11.93;5.40;;;;;;;-0.47;100.00;92452.47;5010367;28;20501;-67
2022/12/15 00:47:35;;;;;;;10.73;5.05;;;;;;;-0.28;100.00;92451.38;5009443;28;21685;-68
2022/12/15 01:20:26;;;;;;;5.53;2.95;;;;;;;-0.38;100.00;92462.91;5009396;28;20411;-68
2022/12/15 01:22:54;;;;;;;7.50;4.15;;;;;;;-0.59;100.00;92458.22;5009776;28;20050;-68
2022/12/15 01:25:23;;;;;;;8.00;4.30;;;;;;;-0.56;100.00;92464.78;5009125;28;20457;-68
2022/12/15 01:27:51;;;;;;;7.95;4.50;;;;;;;-0.69;100.00;92475.91;5010068;28;20048;-68
2022/12/15 01:30:20;;;;;;;7.83;4.30;;;;;;;-0.49;100.00;92472.88;5009203;28;20053;-68
2022/12/15 01:32:48;;;;;;;8.43;4.30;;;;;;;-0.70;100.00;92482.44;4996820;28;20042;-68
2022/12/15 01:35:15;;;;;;;9.63;5.22;;;;;;;-0.39;100.00;92492.94;4990574;28;20057;-68
2022/12/15 01:37:42;;;;;;;9.73;4.75;;;;;;;-0.52;100.00;92487.91;4993984;28;20039;-68
2022/12/15 01:42:58;;;;;;;10.73;5.53;;;;;;;-0.71;100.00;92490.91;4984798;28;20046;-68
2022/12/15 01:45:28;;;;;;;10.68;5.60;;;;;;;-0.60;100.00;92489.03;5008818;28;20054;-67
2022/12/15 01:48:08;;;;;;;11.27;6.22;;;;;;;-0.65;100.00;92489.38;5009710;28;20045;-67
2022/12/15 01:51:13;;;;;;;12.10;6.57;;;;;;;-0.63;100.00;92495.16;4995400;28;20618;-68
2022/12/15 01:53:46;;;;;;;13.85;7.45;;;;;;;-0.76;100.00;92502.06;4992500;28;20818;-67
2022/12/15 01:56:17;;;;;;;14.37;7.60;;;;;;;-0.62;100.00;92502.88;5000398;28;20104;-68
2022/12/15 01:58:47;;;;;;;14.77;7.57;;;;;;;-0.65;100.00;92495.53;5008598;28;20046;-68
2022/12/15 02:01:14;;;;;;;15.55;8.50;;;;;;;-0.80;100.00;92488.56;5008761;28;20050;-68
2022/12/15 02:03:42;;;;;;;17.45;7.97;;;;;;;-0.68;100.00;92492.84;5010852;28;20053;-68
2022/12/15 02:06:10;;;;;;;17.98;8.80;;;;;;;-0.89;100.00;92490.81;5011526;28;20045;-67
2022/12/15 02:08:39;;;;;;;18.83;9.30;;;;;;;-0.95;100.00;92489.66;5000951;28;20391;-68
2022/12/15 02:11:18;;;;;;;20.08;8.65;;;;;;;-0.77;100.00;92492.41;5013311;28;20068;-67
2022/12/15 02:13:58;;;;;;;21.77;9.98;;;;;;;-0.77;100.00;92493.19;5012417;28;20828;-67
2022/12/15 02:16:46;;;;;;;23.48;10.40;;;;;;;-0.93;100.00;92496.19;5012581;28;20053;-68
2022/12/15 02:19:33;;;;;;;21.98;10.57;;;;;;;-0.85;100.00;92507.78;5012322;28;20054;-67
2022/12/15 02:22:19;;;;;;;24.83;10.73;;;;;;;-0.87;100.00;92499.28;5013176;28;20034;-67
2022/12/15 02:25:13;;;;;;;23.95;10.55;;;;;;;-0.97;100.00;92492.72;5007118;28;20679;-67
2022/12/15 02:27:58;;;;;;;24.25;10.65;;;;;;;-0.95;100.00;92490.41;5010174;28;20622;-67
2022/12/15 02:34:10;;;;;;;26.13;11.65;;;;;;;-1.08;100.00;92489.97;4996316;28;20779;-67
2022/12/15 02:36:55;;;;;;;25.13;10.97;;;;;;;-1.03;100.00;92500.41;4999779;28;20223;-67
2022/12/15 02:39:24;;;;;;;24.77;10.93;;;;;;;-1.15;100.00;92492.63;5011964;28;20046;-67
2022/12/15 02:41:51;;;;;;;26.95;11.75;;;;;;;-1.10;100.00;92486.13;4999165;28;20734;-67
2022/12/15 02:44:34;;;;;;;25.73;11.70;;;;;;;-1.10;100.00;92486.13;4983526;28;20061;-67
2022/12/15 02:47:19;;;;;;;24.33;10.73;;;;;;;-1.11;100.00;92487.25;5012616;28;20048;-67
2022/12/15 02:50:10;;;;;;;24.27;10.77;;;;;;;-1.10;100.00;92478.03;5011805;28;20060;-67
2022/12/15 02:52:37;;;;;;;25.13;10.88;;;;;;;-0.99;100.00;92481.53;5011340;28;20042;-67
2022/12/15 02:55:11;;;;;;;24.75;11.40;;;;;;;-0.73;100.00;92493.97;5012652;28;20056;-67
2022/12/15 02:57:52;;;;;;;25.40;11.65;;;;;;;-0.93;100.00;92495.41;5002619;28;20046;-67
2022/12/15 03:00:20;;;;;;;25.58;11.13;;;;;;;-0.97;100.00;92505.41;5011441;28;20107;-67
2022/12/15 03:02:51;;;;;;;26.37;12.13;;;;;;;-1.23;100.00;92507.19;5012148;28;20045;-67
2022/12/15 03:05:21;;;;;;;25.75;11.05;;;;;;;-1.23;100.00;92504.50;5011504;28;20521;-67
2022/12/15 03:07:50;;;;;;;26.55;11.93;;;;;;;-1.15;100.00;92511.47;5012503;28;20091;-67
2022/12/15 03:10:21;;;;;;;27.85;12.38;;;;;;;-1.17;100.00;92507.59;5010183;28;20042;-68
2022/12/15 03:12:49;;;;;;;27.13;11.77;;;;;;;-1.17;100.00;92507.59;5012385;28;20435;-67
2022/12/15 03:15:16;;;;;;;27.70;12.97;;;;;;;-1.23;100.00;92507.19;5009667;28;20042;-67
2022/12/15 03:17:43;;;;;;;28.92;12.88;;;;;;;-1.36;100.00;92509.41;5011682;28;20045;-67
2022/12/15 03:20:10;;;;;;;29.73;12.95;;;;;;;-1.16;100.00;92506.47;5026874;28;20527;-67
2022/12/15 03:22:37;;;;;;;29.00;12.73;;;;;;;-1.10;100.00;92508.41;4997940;28;20042;-67
2022/12/15 03:25:04;;;;;;;29.15;13.05;;;;;;;-1.16;100.00;92522.63;5004466;28;20046;-67
2022/12/15 03:27:31;;;;;;;29.27;13.30;;;;;;;-1.04;100.00;92531.16;5004276;28;20410;-68
2022/12/15 03:29:58;;;;;;;30.10;12.35;;;;;;;-1.05;100.00;92528.81;5011551;28;20041;-67
2022/12/15 03:32:24;;;;;;;29.35;12.95;;;;;;;-1.23;100.00;92536.78;5010861;28;20038;-67
2022/12/15 03:34:51;;;;;;;28.95;12.65;;;;;;;-1.27;100.00;92534.09;5011617;28;20060;-67
2022/12/15 03:37:18;;;;;;;31.15;13.35;;;;;;;-1.34;100.00;92541.34;5010915;28;20050;-67
2022/12/15 03:39:44;;;;;;;32.83;14.60;;;;;;;-1.39;100.00;92549.75;5011837;28;20052;-67
2022/12/15 03:42:11;;;;;;;30.85;13.45;;;;;;;-1.58;100.00;92535.41;4994626;28;20046;-67
2022/12/15 03:44:38;;;;;;;30.67;13.63;;;;;;;-1.43;100.00;92539.75;4999414;28;20438;-67
2022/12/15 03:47:04;;;;;;;34.75;13.77;;;;;;;-1.36;100.00;92541.72;5011552;28;20549;-67
2022/12/15 03:49:31;;;;;;;30.42;13.00;;;;;;;-1.26;100.00;92543.69;5009336;28;20046;-67
2022/12/15 03:51:58;;;;;;;31.77;12.93;;;;;;;-1.32;100.00;92534.44;5011178;28;20048;-67
2022/12/15 03:54:24;;;;;;;30.00;11.82;;;;;;;-1.33;100.00;92532.88;5010182;28;20415;-67
2022/12/15 03:56:51;;;;;;;30.13;13.35;;;;;;;-1.22;100.00;92539.13;5003799;28;20050;-67
2022/12/15 03:59:18;;;;;;;31.58;12.70;;;;;;;-1.34;100.00;92539.41;5010661;28;20539;-67
2022/12/15 04:01:47;;;;;;;29.60;12.80;;;;;;;-1.48;100.00;92542.78;4995286;28;20046;-67
2022/12/15 04:04:14;;;;;;;36.10;13.60;;;;;;;-1.39;100.00;92534.38;4991750;28;20047;-67
2022/12/15 04:06:41;;;;;;;30.65;13.02;;;;;;;-1.22;100.00;92538.34;4995439;28;20069;-67
2022/12/15 04:09:08;;;;;;;36.88;13.70;;;;;;;-1.22;100.00;92536.41;4992161;28;20056;-67
2022/12/15 04:11:34;;;;;;;34.17;12.82;;;;;;;-1.35;100.00;92539.78;4997174;28;20431;-68
2022/12/15 04:14:01;;;;;;;36.35;13.05;;;;;;;-1.51;100.00;92534.66;5010156;28;20050;-67
2022/12/15 04:16:28;;;;;;;37.50;14.13;;;;;;;-1.41;100.00;92539.34;4992896;28;22430;-67
2022/12/15 04:21:40;;;;;;;32.35;13.07;;;;;;;-1.62;100.00;92548.06;4989802;28;21577;-67
2022/12/15 05:33:03;;;;;;;33.70;13.10;;;;;;;-1.12;100.00;92586.09;5007669;28;20053;-68
2022/12/15 05:35:29;;;;;;;31.77;13.70;;;;;;;-1.50;100.00;92587.34;4999808;28;20046;-68
2022/12/15 05:37:56;;;;;;;31.33;13.13;;;;;;;-1.49;100.00;92589.69;5007757;28;20045;-68
2022/12/15 05:40:23;;;;;;;31.45;13.32;;;;;;;-1.34;100.00;92587.84;5028503;28;20060;-68
2022/12/15 05:42:49;;;;;;;36.08;14.27;;;;;;;-1.18;100.00;92584.91;5013715;28;20038;-67
2022/12/15 05:45:16;;;;;;;33.15;13.02;;;;;;;-1.15;100.00;92584.13;5012971;28;20038;-67
2022/12/15 05:47:43;;;;;;;31.60;13.20;;;;;;;-1.22;100.00;92581.41;5013412;28;20111;-68
2022/12/15 05:50:09;;;;;;;31.30;12.73;;;;;;;-1.31;100.00;92581.75;5013037;28;20540;-68
2022/12/15 05:52:36;;;;;;;35.70;13.98;;;;;;;-1.35;100.00;92578.22;5005702;28;20491;-68
2022/12/15 05:55:04;;;;;;;32.10;13.77;;;;;;;-1.35;100.00;92578.22;5009263;28;20072;-68
2022/12/15 05:57:31;;;;;;;30.75;12.63;;;;;;;-1.57;100.00;92582.69;4997005;28;20052;-69
2022/12/15 05:59:58;;;;;;;31.10;12.65;;;;;;;-1.57;100.00;92590.75;4994300;28;20475;-68
2022/12/15 06:02:24;;;;;;;34.40;13.20;;;;;;;-1.55;100.00;92588.47;4999917;28;20479;-69
2022/12/15 06:04:51;;;;;;;27.85;12.10;;;;;;;-1.41;100.00;92583.19;5012193;28;20068;-68
2022/12/15 06:07:18;;;;;;;30.83;12.40;;;;;;;-1.35;100.00;92586.31;5012711;28;20057;-69
2022/12/15 06:09:45;;;;;;;27.17;11.15;;;;;;;-1.44;100.00;92589.31;5008462;28;20072;-68
2022/12/15 06:12:12;;;;;;;29.33;12.98;;;;;;;-1.32;100.00;92598.25;5008173;28;20042;-67
2022/12/15 06:14:38;;;;;;;31.30;12.23;;;;;;;-1.36;100.00;92602.84;5007821;28;20042;-68
2022/12/15 06:17:05;;;;;;;33.13;12.82;;;;;;;-1.07;100.00;92601.13;5013105;28;20053;-68
2022/12/15 06:19:32;;;;;;;31.60;13.02;;;;;;;-1.18;100.00;92584.91;4999717;28;20542;-68
2022/12/15 06:21:58;;;;;;;26.40;12.20;;;;;;;-0.94;100.00;92593.53;5010368;28;20042;-66
2022/12/15 06:24:25;;;;;;;30.65;13.10;;;;;;;-0.90;100.00;92586.25;5001922;28;20046;-67
2022/12/15 06:26:52;;;;;;;29.70;13.87;;;;;;;-0.77;100.00;92590.16;5006486;28;20042;-67
2022/12/15 06:29:19;;;;;;;28.73;12.85;;;;;;;-0.91;100.00;92590.84;5002979;28;20056;-67
2022/12/15 06:31:45;;;;;;;32.33;13.70;;;;;;;-0.93;100.00;92595.81;5012359;28;20041;-68
2022/12/15 06:34:15;;;;;;;31.10;12.68;;;;;;;-1.13;100.00;92598.00;5012332;28;20045;-68
2022/12/15 06:36:42;;;;;;;33.55;12.90;;;;;;;-0.91;100.00;92601.59;5012234;28;20044;-68
2022/12/15 06:39:13;;;;;;;33.33;12.27;;;;;;;-0.99;100.00;92599.25;5010724;28;20042;-68
2022/12/15 06:41:41;;;;;;;29.65;12.35;;;;;;;-1.03;100.00;92594.63;5012374;28;20376;-68
2022/12/15 06:44:12;;;;;;;31.30;13.77;;;;;;;-1.58;100.00;92597.28;5011861;28;20056;-67
2022/12/15 06:46:39;;;;;;;31.75;13.43;;;;;;;-1.32;100.00;92599.03;5003005;28;20052;-67
2022/12/15 06:49:06;;;;;;;30.83;12.88;;;;;;;-1.27;100.00;92596.00;5006316;28;20041;-69
2022/12/15 06:51:33;;;;;;;36.50;14.17;;;;;;;-1.27;100.00;92585.22;5011337;28;20038;-67
2022/12/15 06:54:00;;;;;;;32.25;13.02;;;;;;;-1.20;100.00;92597.97;5002781;28;20046;-68
2022/12/15 06:56:30;;;;;;;35.88;13.68;;;;;;;-1.22;100.00;92595.63;4997995;28;20508;-69
2022/12/15 06:59:00;;;;;;;32.92;13.35;;;;;;;-1.02;100.00;92604.25;5012525;28;20359;-69
2022/12/15 07:01:28;;;;;;;34.53;13.40;;;;;;;-0.88;100.00;92603.56;4998092;28;20058;-69
2022/12/15 07:03:55;;;;;;;33.07;13.40;;;;;;;-1.05;100.00;92601.53;5004322;28;20099;-69
2022/12/15 07:06:22;;;;;;;33.97;13.82;;;;;;;-1.27;100.00;92603.28;5011750;28;20038;-69
2022/12/15 07:08:51;;;;;;;38.58;15.30;;;;;;;-1.23;100.00;92601.38;5011831;28;20212;-69
2022/12/15 07:11:19;;;;;;;36.10;14.05;;;;;;;-1.38;100.00;92595.13;5004933;28;20410;-69
2022/12/15 07:13:53;;;;;;;30.35;13.15;;;;;;;-1.01;100.00;92600.41;4993171;28;20454;-69
2022/12/15 07:16:21;;;;;;;37.93;15.37;;;;;;;-1.21;100.00;92597.19;4996093;28;20186;-69
2022/12/15 07:18:49;;;;;;;34.80;14.50;;;;;;;-0.97;100.00;92603.09;4992993;28;20038;-68
2022/12/15 07:21:16;;;;;;;41.30;14.65;;;;;;;-0.90;100.00;92605.09;4999057;28;20056;-68
2022/12/15 07:23:43;;;;;;;41.58;15.27;;;;;;;-0.84;100.00;92607.06;5010573;28;20044;-68
2022/12/15 07:26:26;;;;;;;37.88;14.65;;;;;;;-0.68;100.00;92612.16;5003922;28;20054;-69
2022/12/15 07:28:53;;;;;;;35.77;15.43;;;;;;;-0.68;100.00;92622.16;5006346;28;20047;-69
2022/12/15 07:31:21;;;;;;;37.92;15.30;;;;;;;-0.65;100.00;92613.31;5006779;28;20068;-68
2022/12/15 07:33:48;;;;;;;35.03;16.23;;;;;;;-0.68;100.00;92622.16;5009422;28;20038;-69
2022/12/15 07:36:15;;;;;;;37.47;15.65;;;;;;;-0.65;100.00;92635.63;5011265;28;20076;-68
2022/12/15 07:38:41;;;;;;;43.58;16.20;;;;;;;-0.66;100.00;92641.41;5011504;28;20044;-69
2022/12/15 07:41:09;;;;;;;38.63;14.60;;;;;;;-0.62;100.00;92640.28;5011519;28;20072;-69
2022/12/15 07:43:36;;;;;;;33.65;13.13;;;;;;;-0.58;100.00;92648.41;5010253;28;20974;-68
2022/12/15 07:46:04;;;;;;;16.58;7.78;;;;;;;-0.35;100.00;92660.84;5005451;28;20038;-69
2022/12/15 07:48:32;;;;;;;15.52;7.57;;;;;;;-0.38;100.00;92659.66;5003942;28;20048;-69
2022/12/15 07:51:04;;;;;;;12.15;6.20;;;;;;;-0.34;100.00;92657.75;5011402;28;20053;-69
2022/12/15 07:53:38;;;;;;;14.27;7.20;;;;;;;-0.28;100.00;92650.06;5010570;28;21437;-69
2022/12/15 07:56:06;;;;;;;21.88;9.38;;;;;;;-0.25;100.00;92650.09;4997787;28;20042;-69
2022/12/15 07:58:36;;;;;;;26.05;8.73;;;;;;;-0.05;100.00;92647.88;5010239;28;20908;-69
2022/12/15 08:01:09;;;;;;;16.25;7.90;;;;;;;-0.02;100.00;92654.41;5010668;28;20117;-69
2022/12/15 08:03:36;;;;;;;17.92;7.60;;;;;;;0.04;100.00;92658.31;5010069;28;20238;-69
2022/12/15 08:06:10;;;;;;;16.93;7.57;;;;;;;0.10;100.00;92645.22;5011244;28;20113;-69
2022/12/15 08:08:37;;;;;;;19.27;8.27;;;;;;;0.11;100.00;92644.84;5010104;28;21542;-69
2022/12/15 08:11:05;;;;;;;14.70;6.55;;;;;;;0.12;100.00;92645.63;5010842;28;20495;-69
2022/12/15 08:13:33;;;;;;;16.63;5.88;;;;;;;0.25;100.00;92652.22;5010592;28;20050;-69
2022/12/15 08:16:20;;;;;;;13.18;5.32;;;;;;;0.18;100.00;92674.56;5010430;28;20507;-69
2022/12/15 08:18:47;;;;;;;11.20;5.87;;;;;;;0.17;100.00;92686.50;5010441;28;20487;-69
2022/12/15 08:21:14;;;;;;;17.10;6.28;;;;;;;0.34;100.00;92686.94;4995818;28;20050;-68
2022/12/15 08:23:41;;;;;;;23.50;8.20;;;;;;;0.11;100.00;92689.94;4997169;28;20414;-69
2022/12/15 08:26:11;;;;;;;11.02;5.20;;;;;;;0.19;100.00;92683.41;5006733;28;20072;-69
2022/12/15 08:28:39;;;;;;;11.35;5.60;;;;;;;-0.05;100.00;92684.84;5009757;28;20450;-69
2022/12/15 08:31:12;;;;;;;14.77;7.20;;;;;;;0.02;100.00;92676.81;5010810;28;20422;-68
2022/12/15 08:33:40;;;;;;;18.85;8.30;;;;;;;0.19;100.00;92676.09;5009719;28;20391;-68
2022/12/15 08:36:09;;;;;;;16.17;7.15;;;;;;;0.37;100.00;92683.47;4993860;28;20505;-69
2022/12/15 08:38:37;;;;;;;20.55;6.88;;;;;;;0.29;100.00;92681.91;4992307;28;20442;-69
2022/12/15 08:41:13;;;;;;;11.20;5.63;;;;;;;0.13;100.00;92676.84;4999764;28;20360;-69
2022/12/15 08:43:40;;;;;;;15.40;5.97;;;;;;;0.42;100.00;92674.22;5000492;28;20810;-69
2022/12/15 08:46:25;;;;;;;14.27;5.80;;;;;;;0.51;100.00;92680.06;5004986;28;20111;-69
2022/12/15 08:48:53;;;;;;;16.33;7.05;;;;;;;0.53;100.00;92685.84;5010394;28;20050;-68
2022/12/15 08:51:22;;;;;;;12.45;6.20;;;;;;;0.38;100.00;92696.59;5008408;28;20060;-68
2022/12/15 08:53:48;;;;;;;10.98;5.45;;;;;;;0.43;100.00;92702.78;4998330;28;20045;-68
2022/12/15 08:56:18;;;;;;;13.70;6.43;;;;;;;0.54;100.00;92695.47;4999204;28;20100;-69
2022/12/15 08:58:47;;;;;;;11.50;5.90;;;;;;;0.36;100.00;92706.22;5008949;28;20538;-69
2022/12/15 09:01:19;;;;;;;11.48;5.60;;;;;;;0.14;100.00;92710.75;5009618;28;20042;-68
2022/12/15 09:03:54;;;;;;;11.43;5.15;;;;;;;0.08;100.00;92706.88;5010161;28;20046;-69
2022/12/15 09:06:32;;;;;;;12.13;5.53;;;;;;;0.19;100.00;92696.91;5009876;28;20121;-69
2022/12/15 09:09:01;;;;;;;17.63;8.30;;;;;;;0.36;100.00;92700.81;5005867;28;20096;-68
2022/12/15 09:11:29;;;;;;;14.30;7.65;;;;;;;0.32;100.00;92706.22;5000106;28;20057;-69
2022/12/15 09:13:56;;;;;;;13.63;6.88;;;;;;;0.36;100.00;92708.91;5009707;28;20487;-68
2022/12/15 09:16:23;;;;;;;13.32;6.70;;;;;;;0.50;100.00;92700.84;5009761;28;20054;-68
2022/12/15 09:18:53;;;;;;;20.77;8.23;;;;;;;0.45;100.00;92705.88;5009830;28;20077;-68
2022/12/15 09:21:22;;;;;;;15.17;6.70;;;;;;;0.69;100.00;92701.69;5009637;28;20046;-68
2022/12/15 09:23:50;;;;;;;16.60;8.02;;;;;;;0.77;100.00;92698.63;5009839;28;20041;-69
2022/12/15 09:26:20;;;;;;;17.88;8.38;;;;;;;0.76;100.00;92691.66;5008200;28;20045;-69
2022/12/15 09:28:47;;;;;;;28.90;13.50;;;;;;;0.80;100.00;92691.66;5009741;28;20038;-68
2022/12/15 09:31:21;;;;;;;28.27;13.70;;;;;;;0.84;100.00;92684.34;5009387;28;20388;-69
2022/12/15 09:33:50;;;;;;;31.97;12.73;;;;;;;0.91;100.00;92681.66;5009981;28;20046;-68
2022/12/15 09:36:19;;;;;;;22.98;10.25;;;;;;;1.07;100.00;92673.19;4990227;28;20046;-69
2022/12/15 09:38:45;;;;;;;21.13;9.85;;;;;;;1.19;100.00;92661.97;4994355;28;20068;-69
2022/12/15 09:41:12;;;;;;;17.23;8.23;;;;;;;0.66;100.00;92653.84;4999700;28;20058;-68
2022/12/15 09:43:51;;;;;;;18.23;7.32;;;;;;;0.71;100.00;92658.88;5000892;28;20418;-69
2022/12/15 09:46:35;;;;;;;15.27;7.17;;;;;;;0.84;100.00;92651.16;5004925;28;20044;-69
2022/12/15 09:49:12;;;;;;;21.50;9.52;;;;;;;1.03;100.00;92645.41;5009765;28;20515;-69
2022/12/15 09:51:46;;;;;;;17.10;7.88;;;;;;;0.84;100.00;92648.47;5004884;28;20205;-69
2022/12/15 09:54:13;;;;;;;16.02;8.13;;;;;;;1.24;100.00;92638.44;5001240;28;20050;-69
2022/12/15 09:56:52;;;;;;;17.73;8.88;;;;;;;1.00;98.38;92648.84;5000011;28;20038;-68
2022/12/15 09:59:33;;;;;;;13.43;6.77;;;;;;;1.10;98.90;92653.47;5009215;28;20095;-69
2022/12/15 10:02:22;;;;;;;13.25;6.35;;;;;;;0.68;100.00;92657.69;5006091;28;20042;-69
2022/12/15 10:05:15;;;;;;;14.10;6.60;;;;;;;1.12;99.66;92661.97;5001086;28;21812;-69
2022/12/15 10:07:47;;;;;;;16.13;6.47;;;;;;;1.28;98.58;92661.59;5001229;28;20042;-69
2022/12/15 10:10:24;;;;;;;19.45;8.20;;;;;;;1.21;99.25;92650.78;4992608;28;20053;-69
2022/12/15 10:12:54;;;;;;;17.00;7.90;;;;;;;1.35;97.93;92655.41;5009525;28;20069;-68
2022/12/15 10:15:35;;;;;;;15.25;7.88;;;;;;;1.31;98.79;92665.44;5024141;28;20046;-69
2022/12/15 10:18:10;;;;;;;15.40;6.80;;;;;;;1.46;97.57;92664.28;5009762;28;20072;-69
2022/12/15 10:20:37;;;;;;;14.45;6.90;;;;;;;1.73;96.48;92674.66;5007364;28;20050;-68
2022/12/15 10:23:15;;;;;;;15.82;6.30;;;;;;;1.36;96.47;92659.66;5009396;28;20045;-69
2022/12/15 10:25:59;;;;;;;16.70;6.97;;;;;;;1.13;98.30;92665.47;4997364;28;20051;-69
2022/12/15 10:28:32;;;;;;;16.60;7.50;;;;;;;1.30;95.88;92661.19;5012529;28;20080;-69
2022/12/15 10:31:04;;;;;;;11.82;6.40;;;;;;;1.10;96.71;92668.94;5012410;28;20046;-69
2022/12/15 10:33:38;;;;;;;18.60;7.38;;;;;;;1.12;97.70;92664.66;5012572;28;20457;-70
2022/12/15 10:36:10;;;;;;;17.65;7.75;;;;;;;1.31;96.27;92662.72;4995180;28;20064;-69
2022/12/15 10:38:42;;;;;;;13.67;6.70;;;;;;;0.98;97.69;92676.25;4983237;28;20041;-69
2022/12/15 10:41:13;;;;;;;16.33;7.55;;;;;;;0.99;98.04;92667.00;5002138;28;20397;-68
2022/12/15 10:43:43;;;;;;;19.40;8.63;;;;;;;0.84;97.90;92657.34;5003700;28;20524;-69
2022/12/15 10:46:26;;;;;;;21.88;9.40;;;;;;;1.03;99.13;92660.81;4992836;28;20388;-69
2022/12/15 10:49:23;;;;;;;19.02;8.93;;;;;;;1.08;97.85;92655.03;5012312;28;20390;-69
2022/12/15 10:51:59;;;;;;;18.97;7.93;;;;;;;1.15;97.18;92636.13;5005932;28;21809;-69
2022/12/15 10:54:33;;;;;;;21.25;9.32;;;;;;;1.35;96.60;92636.50;5005623;28;20054;-69
2022/12/15 10:57:15;;;;;;;16.35;7.30;;;;;;;1.49;94.88;92633.75;4997224;28;20049;-69
2022/12/15 10:59:42;;;;;;;24.50;10.80;;;;;;;1.38;94.92;92624.91;5004499;28;20630;-70
2022/12/15 11:02:22;;;;;;;21.17;9.07;;;;;;;1.64;94.72;92618.28;5011905;28;20422;-66
2022/12/15 11:04:54;;;;;;;17.60;8.03;;;;;;;1.54;94.29;92610.97;5012091;28;20068;-69
2022/12/15 11:07:22;;;;;;;24.58;8.70;;;;;;;1.14;98.28;92600.22;5026737;28;20111;-69
2022/12/15 11:09:58;;;;;;;15.32;7.18;;;;;;;1.14;97.06;92604.84;5001193;28;20045;-70
2022/12/15 11:15:50;;;;;;;17.77;8.43;;;;;;;0.14;100.00;92587.44;5011179;28;20379;-70
2022/12/15 11:18:26;;;;;;;17.03;7.80;;;;;;;0.77;100.00;92565.53;5026657;28;20058;-69
2022/12/15 11:21:11;;;;;;;19.63;8.25;;;;;;;1.23;98.60;92563.91;5011842;28;20044;-69
2022/12/15 11:23:50;;;;;;;16.98;7.70;;;;;;;0.97;98.98;92566.66;5011193;28;20606;-70
2022/12/15 11:26:41;;;;;;;18.77;7.97;;;;;;;1.14;98.61;92559.69;5010301;28;20049;-69
2022/12/15 11:29:48;;;;;;;26.50;8.52;;;;;;;1.30;99.21;92555.81;5011821;28;20045;-69
2022/12/15 11:32:21;;;;;;;26.63;10.53;;;;;;;1.05;99.83;92555.84;5010440;28;21694;-69
2022/12/15 11:34:48;;;;;;;25.13;9.82;;;;;;;1.10;100.00;92548.09;5004619;28;20042;-69
2022/12/15 11:37:38;;;;;;;25.65;10.38;;;;;;;1.43;97.53;92548.03;4992264;28;20054;-69
2022/12/15 11:40:24;;;;;;;24.10;10.20;;;;;;;1.37;97.85;92556.56;4996369;28;20395;-69
2022/12/15 11:42:50;;;;;;;24.02;9.43;;;;;;;1.46;96.70;92544.56;5008568;28;20287;-70
2022/12/15 11:45:22;;;;;;;23.23;10.03;;;;;;;0.77;98.21;92557.44;4997991;28;20091;-70
2022/12/15 11:47:56;;;;;;;36.67;15.35;;;;;;;0.27;100.00;92560.09;5011321;28;20048;-69
2022/12/15 11:50:40;;;;;;;43.13;17.80;;;;;;;-0.15;100.00;92556.94;5011296;28;20445;-69
2022/12/15 11:53:25;;;;;;;42.05;16.83;;;;;;;0.67;100.00;92547.41;4997372;28;20066;-69
2022/12/15 11:56:10;;;;;;;43.35;16.35;;;;;;;1.01;100.00;92550.47;5004075;28;20660;-69
2022/12/15 11:58:46;;;;;;;39.73;17.17;;;;;;;0.76;99.53;92550.47;5007730;28;20042;-69
2022/12/15 12:01:20;;;;;;;41.28;16.20;;;;;;;0.05;100.00;92553.91;5009227;28;20057;-69
2022/12/15 12:04:06;;;;;;;48.65;19.20;;;;;;;0.28;100.00;92554.34;5011083;28;20072;-69
2022/12/15 12:06:59;;;;;;;47.80;17.95;;;;;;;0.38;100.00;92540.06;4993901;28;20038;-69
2022/12/15 12:09:37;;;;;;;48.85;18.50;;;;;;;0.12;100.00;92546.59;4990986;28;20466;-70
2022/12/15 12:12:07;;;;;;;50.97;18.40;;;;;;;-0.13;100.00;92543.84;5008719;28;20476;-69
2022/12/15 12:14:59;;;;;;;50.15;19.25;;;;;;;-0.15;100.00;92537.28;5010355;28;21453;-70
2022/12/15 12:17:50;;;;;;;58.50;21.85;;;;;;;-0.50;100.00;92536.78;5010298;28;20054;-69
2022/12/15 12:20:28;;;;;;;55.60;21.42;;;;;;;-0.70;100.00;92538.25;5010740;28;20045;-69
2022/12/15 12:23:10;;;;;;;55.47;19.67;;;;;;;-0.72;100.00;92532.47;4980392;28;20111;-69
2022/12/15 12:25:57;;;;;;;53.00;20.17;;;;;;;-0.67;100.00;92526.72;4997892;28;20449;-69
2022/12/15 12:28:41;;;;;;;53.17;20.50;;;;;;;-0.56;100.00;92508.66;4982524;28;20045;-69
2022/12/15 12:31:21;;;;;;;57.63;21.45;;;;;;;-0.42;100.00;92503.31;5010610;28;20502;-69
2022/12/15 12:33:54;;;;;;;57.70;20.25;;;;;;;-0.32;100.00;92492.94;5009781;28;20407;-69
2022/12/15 12:36:21;;;;;;;49.53;17.98;;;;;;;-0.04;100.00;92490.31;5010092;28;20046;-67
2022/12/15 12:38:51;;;;;;;51.90;19.60;;;;;;;0.05;100.00;92489.94;5005600;28;20042;-66
2022/12/15 12:41:41;;;;;;;48.78;18.63;;;;;;;0.08;100.00;92483.00;5005617;28;20050;-69
2022/12/15 12:44:20;;;;;;;54.35;20.35;;;;;;;-0.94;100.00;92488.50;4991564;28;20069;-70
2022/12/15 12:46:52;;;;;;;54.25;19.90;;;;;;;-0.58;100.00;92496.72;5009033;28;20046;-69
2022/12/15 12:49:31;;;;;;;64.72;22.15;;;;;;;0.05;100.00;92481.06;5010012;28;20076;-70
2022/12/15 12:52:02;;;;;;;53.87;19.80;;;;;;;0.04;100.00;92476.81;5010443;28;20040;-69
2022/12/15 12:54:34;;;;;;;59.80;20.45;;;;;;;-0.47;100.00;92490.22;5010026;28;20049;-69
2022/12/15 12:57:35;;;;;;;71.25;26.50;;;;;;;-0.11;100.00;92478.75;5003506;28;20091;-69
2022/12/15 13:00:07;;;;;;;57.78;20.25;;;;;;;0.19;100.00;92483.78;5009215;28;20038;-69
2022/12/15 13:02:35;;;;;;;59.33;21.65;;;;;;;-0.02;100.00;92492.59;5009211;28;21759;-69
2022/12/15 13:05:25;;;;;;;74.73;24.40;;;;;;;-0.05;100.00;92479.91;5010089;28;20483;-69
2022/12/15 13:08:06;;;;;;;60.40;21.15;;;;;;;-0.52;100.00;92492.53;4995866;28;20541;-69
2022/12/15 13:10:41;;;;;;;57.83;21.25;;;;;;;0.12;100.00;92487.25;4983583;28;20049;-69
2022/12/15 13:13:36;;;;;;;59.72;20.98;;;;;;;0.28;100.00;92478.78;4996073;28;20142;-69
2022/12/15 13:16:18;;;;;;;56.83;20.98;;;;;;;0.18;100.00;92479.53;5004450;28;20441;-69
2022/12/15 13:19:03;;;;;;;60.87;20.17;;;;;;;0.00;100.00;92482.22;5002342;28;20050;-69
2022/12/15 13:24:34;;;;;;;61.08;23.13;;;;;;;-0.83;100.00;92473.91;5008938;28;20379;-69
2022/12/15 13:27:14;;;;;;;68.03;24.05;;;;;;;-0.78;100.00;92472.03;4988835;28;20042;-69
2022/12/15 13:29:57;;;;;;;63.42;22.05;;;;;;;-0.94;100.00;92469.66;5006490;28;20683;-69
2022/12/15 13:32:40;;;;;;;67.10;24.23;;;;;;;-0.23;100.00;92459.06;5000527;28;20062;-68
2022/12/15 13:35:12;;;;;;;66.00;22.42;;;;;;;0.10;100.00;92451.81;5009594;28;20049;-68
2022/12/15 13:38:01;;;;;;;59.92;22.88;;;;;;;0.19;100.00;92454.88;5008806;28;21745;-68
2022/12/15 13:40:34;;;;;;;67.07;26.05;;;;;;;0.30;100.00;92459.50;4982340;28;20042;-69
2022/12/15 13:43:04;;;;;;;70.65;28.17;;;;;;;0.34;100.00;92468.34;4995891;28;20454;-68
2022/12/15 13:45:36;;;;;;;59.37;21.07;;;;;;;0.39;100.00;92476.84;5009404;28;20081;-69
2022/12/15 13:48:18;;;;;;;52.88;19.77;;;;;;;0.44;100.00;92464.88;5009546;28;20038;-69
2022/12/15 13:50:52;;;;;;;43.30;15.77;;;;;;;0.53;100.00;92459.09;5008810;28;20730;-69
2022/12/15 13:53:21;;;;;;;44.90;16.75;;;;;;;0.60;100.00;92448.28;4996456;28;20056;-69
2022/12/15 13:55:59;;;;;;;37.05;14.85;;;;;;;0.27;100.00;92434.06;5006968;28;20050;-69
2022/12/15 13:58:30;;;;;;;34.73;12.80;;;;;;;0.02;100.00;92444.88;5009155;28;20057;-69
2022/12/15 14:00:57;;;;;;;29.83;11.65;;;;;;;0.14;100.00;92438.28;5013071;28;20103;-68
2022/12/15 14:03:24;;;;;;;32.47;12.35;;;;;;;0.44;100.00;92435.19;5018775;28;20066;-68
2022/12/15 14:05:59;;;;;;;37.38;14.23;;;;;;;0.54;100.00;92433.63;5007896;28;20044;-69
2022/12/15 14:08:28;;;;;;;33.08;13.45;;;;;;;0.34;100.00;92419.78;4999169;28;20296;-69
2022/12/15 14:10:59;;;;;;;34.23;13.00;;;;;;;0.14;100.00;92430.19;4994645;28;20368;-69
2022/12/15 14:13:37;;;;;;;30.92;12.70;;;;;;;-0.08;100.00;92424.81;4993000;28;20046;-69
2022/12/15 14:16:17;;;;;;;30.83;12.32;;;;;;;0.27;100.00;92428.66;5001228;28;20053;-69